Time;durP1;ratioP1;P1;durP2;ratioP2;P2;SDS_P1;SDS_P2;PMS_P1;PMS_P2;Temp;Humidity;BMP_temperature;BMP_pressure;BME280_temperature;BME280_humidity;BME280_pressure;Samples;Min_cycle;Max_cycle;Signal;HPM_P1;HPM_P2
2020/12/15 00:02:57;;;;;;;12.57;8.73;;;;;;;;;;10206801;28;20500;-64
2020/12/15 00:07:55;;;;;;;10.03;7.70;;;;;;;;;;10178952;28;20379;-64
2020/12/15 00:12:52;;;;;;;13.97;8.53;;;;;;;;;;10197352;28;20405;-64
2020/12/15 00:17:49;;;;;;;12.00;8.50;;;;;;;;;;10180123;28;20439;-65
2020/12/15 00:22:47;;;;;;;9.13;6.37;;;;;;;;;;10203141;28;20436;-65
2020/12/15 00:27:46;;;;;;;10.00;7.73;;;;;;;;;;10203063;28;20045;-64
2020/12/15 00:32:47;;;;;;;10.25;6.47;;;;;;;;;;10203006;28;20034;-65
2020/12/15 00:37:45;;;;;;;9.65;7.38;;;;;;;;;;10193688;28;20050;-63
2020/12/15 00:42:42;;;;;;;6.40;3.33;;;;;;;;;;10204266;28;20038;-64
2020/12/15 00:47:40;;;;;;;4.80;2.20;;;;;;;;;;10196732;28;20034;-65
2020/12/15 00:52:39;;;;;;;5.68;2.90;;;;;;;;;;10185150;28;20046;-63
2020/12/15 00:57:36;;;;;;;4.43;2.97;;;;;;;;;;10198063;28;20041;-63
2020/12/15 01:02:34;;;;;;;6.10;3.08;;;;;;;;;;10203303;28;20821;-64
2020/12/15 01:07:32;;;;;;;7.13;3.33;;;;;;;;;;10198420;28;20505;-64
2020/12/15 01:12:30;;;;;;;;;;;;;;;;;;10192817;28;20047;-63
2020/12/15 01:17:28;;;;;;;5.78;3.35;;;;;;;;;;10199300;28;20397;-65
2020/12/15 01:22:25;;;;;;;4.40;3.33;;;;;;;;;;10201138;28;20034;-64
2020/12/15 01:27:23;;;;;;;4.60;3.23;;;;;;;;;;10197253;28;20043;-65
2020/12/15 01:32:32;;;;;;;6.80;3.67;;;;;;;;;;10190039;28;20511;-65
2020/12/15 01:37:30;;;;;;;6.30;2.58;;;;;;;;;;10201890;28;20038;-64
2020/12/15 01:42:28;;;;;;;4.27;2.57;;;;;;;;;;10205871;28;20039;-66
2020/12/15 01:47:27;;;;;;;7.60;3.22;;;;;;;;;;10218847;28;20077;-64
2020/12/15 01:52:25;;;;;;;4.23;2.60;;;;;;;;;;10211735;28;20039;-64
2020/12/15 01:57:27;;;;;;;4.15;3.20;;;;;;;;;;10215457;28;20054;-65
2020/12/15 02:02:35;;;;;;;6.95;3.30;;;;;;;;;;10220685;28;20042;-64
2020/12/15 02:07:38;;;;;;;7.03;3.25;;;;;;;;;;10222988;28;20055;-65
2020/12/15 02:12:36;;;;;;;5.57;3.67;;;;;;;;;;10204283;28;20043;-64
2020/12/15 02:17:34;;;;;;;5.53;3.57;;;;;;;;;;10230677;28;20050;-64
2020/12/15 02:22:56;;;;;;;7.75;3.55;;;;;;;;;;10217721;28;20038;-64
2020/12/15 02:27:55;;;;;;;5.63;3.65;;;;;;;;;;10203860;28;20034;-65
2020/12/15 02:32:53;;;;;;;6.67;3.93;;;;;;;;;;10226149;28;20714;-64
2020/12/15 02:37:53;;;;;;;7.32;3.60;;;;;;;;;;10216719;28;20035;-63
2020/12/15 02:42:56;;;;;;;6.32;3.95;;;;;;;;;;10210573;28;20038;-63
2020/12/15 02:47:57;;;;;;;4.63;3.15;;;;;;;;;;10220950;28;20042;-64
2020/12/15 02:53:01;;;;;;;5.72;3.15;;;;;;;;;;10206705;28;20512;-63
2020/12/15 02:58:05;;;;;;;4.82;3.20;;;;;;;;;;10206489;28;20600;-64
2020/12/15 03:03:02;;;;;;;7.00;3.60;;;;;;;;;;10220943;28;20469;-64
2020/12/15 03:08:27;;;;;;;7.07;4.07;;;;;;;;;;10208786;28;20125;-63
2020/12/15 03:13:26;;;;;;;4.60;2.93;;;;;;;;;;10209403;28;20125;-65
2020/12/15 03:18:25;;;;;;;4.55;3.42;;;;;;;;;;10183159;28;20046;-64
2020/12/15 03:23:27;;;;;;;6.88;3.47;;;;;;;;;;10215452;28;20042;-62
2020/12/15 03:28:25;;;;;;;4.63;3.17;;;;;;;;;;10201342;28;20041;-64
2020/12/15 03:33:29;;;;;;;6.82;3.53;;;;;;;;;;10220816;28;20555;-64
2020/12/15 03:38:26;;;;;;;4.53;3.83;;;;;;;;;;10209028;28;20038;-63
2020/12/15 03:43:27;;;;;;;6.55;3.10;;;;;;;;;;10180449;28;20038;-64
2020/12/15 03:48:57;;;;;;;6.50;3.05;;;;;;;;;;10206093;28;20035;-63
2020/12/15 03:53:55;;;;;;;5.93;3.58;;;;;;;;;;10211163;28;20035;-63
2020/12/15 03:58:53;;;;;;;5.03;2.60;;;;;;;;;;10195999;28;20026;-63
2020/12/15 04:03:50;;;;;;;6.20;3.40;;;;;;;;;;10229071;28;20278;-64
2020/12/15 04:08:55;;;;;;;10.32;4.15;;;;;;;;;;10204480;28;20045;-64
2020/12/15 04:13:54;;;;;;;6.13;3.38;;;;;;;;;;10217907;28;20117;-63
2020/12/15 04:18:52;;;;;;;7.25;4.35;;;;;;;;;;10225405;28;20196;-57
2020/12/15 04:23:51;;;;;;;4.53;3.17;;;;;;;;;;10199953;28;20046;-60
2020/12/15 04:28:54;;;;;;;8.93;3.70;;;;;;;;;;10209989;28;20038;-61
2020/12/15 04:33:51;;;;;;;6.30;4.23;;;;;;;;;;10194378;28;20433;-58
2020/12/15 04:38:49;;;;;;;7.20;4.30;;;;;;;;;;10212623;28;20035;-53
2020/12/15 04:43:59;;;;;;;7.88;4.03;;;;;;;;;;10214916;28;20425;-58
2020/12/15 04:49:06;;;;;;;8.85;4.45;;;;;;;;;;10195142;28;20069;-56
2020/12/15 04:54:15;;;;;;;6.63;4.15;;;;;;;;;;10204941;28;20086;-58
2020/12/15 04:59:24;;;;;;;7.47;4.10;;;;;;;;;;10209327;28;20038;-60
2020/12/15 05:04:27;;;;;;;5.00;3.38;;;;;;;;;;10197536;28;20632;-58
2020/12/15 05:09:34;;;;;;;5.93;3.88;;;;;;;;;;10205025;28;20039;-57
2020/12/15 05:14:35;;;;;;;5.00;3.20;;;;;;;;;;10210386;28;20579;-57
2020/12/15 05:19:42;;;;;;;6.40;3.93;;;;;;;;;;10186547;28;20101;-62
2020/12/15 05:24:45;;;;;;;6.45;4.20;;;;;;;;;;10208019;28;20562;-60
2020/12/15 05:29:44;;;;;;;7.68;5.30;;;;;;;;;;10182196;28;20054;-62
2020/12/15 05:34:52;;;;;;;5.70;4.22;;;;;;;;;;10184672;28;20121;-59
2020/12/15 05:40:08;;;;;;;13.15;6.13;;;;;;;;;;10192909;28;20038;-56
2020/12/15 05:45:21;;;;;;;10.25;5.68;;;;;;;;;;10192989;28;20405;-64
2020/12/15 05:50:18;;;;;;;;;;;;;;;;;;10215529;28;20034;-58
2020/12/15 05:55:17;;;;;;;7.83;4.97;;;;;;;;;;10196680;28;19967;-55
2020/12/15 06:00:15;;;;;;;7.65;4.97;;;;;;;;;;10217237;28;20042;-53
2020/12/15 06:05:13;;;;;;;10.80;5.23;;;;;;;;;;10199086;28;20551;-62
2020/12/15 06:10:11;;;;;;;;;;;;;;;;;;10214904;28;20030;-60
2020/12/15 06:15:08;;;;;;;10.35;5.30;;;;;;;;;;10196445;28;19972;-54
2020/12/15 06:20:08;;;;;;;8.80;5.00;;;;;;;;;;10198281;28;20031;-57
2020/12/15 06:25:06;;;;;;;7.35;4.57;;;;;;;;;;10194395;28;20072;-59
2020/12/15 06:30:04;;;;;;;8.03;4.97;;;;;;;;;;10197707;28;20084;-57
2020/12/15 06:35:11;;;;;;;12.75;6.43;;;;;;;;;;10191629;28;20177;-57
2020/12/15 06:40:09;;;;;;;8.60;4.97;;;;;;;;;;10187209;28;20035;-56
2020/12/15 06:45:08;;;;;;;8.27;4.85;;;;;;;;;;10184767;28;20034;-60
2020/12/15 06:50:09;;;;;;;8.48;4.68;;;;;;;;;;10192507;28;20037;-59
2020/12/15 06:55:06;;;;;;;9.30;5.30;;;;;;;;;;10182905;28;20174;-58
2020/12/15 07:00:08;;;;;;;8.10;5.27;;;;;;;;;;10191569;28;20135;-62
2020/12/15 07:05:25;;;;;;;11.17;6.00;;;;;;;;;;10188425;28;20046;-54
2020/12/15 07:10:25;;;;;;;9.85;6.03;;;;;;;;;;10194559;28;20535;-58
2020/12/15 07:15:22;;;;;;;7.80;4.78;;;;;;;;;;10196993;28;20422;-59
2020/12/15 07:20:20;;;;;;;7.93;4.90;;;;;;;;;;10186763;28;20035;-56
2020/12/15 07:25:18;;;;;;;8.57;5.68;;;;;;;;;;10189783;28;20038;-56
2020/12/15 07:30:17;;;;;;;8.35;4.60;;;;;;;;;;10192279;28;20432;-61
2020/12/15 07:35:22;;;;;;;9.13;4.75;;;;;;;;;;10197468;28;20034;-58
2020/12/15 07:40:20;;;;;;;9.30;5.18;;;;;;;;;;10194941;28;20034;-56
2020/12/15 07:45:17;;;;;;;7.30;4.97;;;;;;;;;;10196898;28;20042;-57
2020/12/15 07:50:15;;;;;;;9.93;5.50;;;;;;;;;;10185354;28;20049;-60
2020/12/15 07:55:13;;;;;;;12.43;5.33;;;;;;;;;;10212056;28;20508;-60
2020/12/15 08:00:15;;;;;;;8.02;5.75;;;;;;;;;;10205936;28;20038;-56
2020/12/15 08:05:14;;;;;;;8.38;5.20;;;;;;;;;;10197766;28;20047;-55
2020/12/15 08:10:11;;;;;;;;;;;;;;;;;;10199293;28;20058;-63
2020/12/15 08:15:10;;;;;;;11.98;6.47;;;;;;;;;;10191966;28;20285;-55
2020/12/15 08:20:07;;;;;;;12.90;4.82;;;;;;;;;;10195601;28;20060;-54
2020/12/15 08:25:07;;;;;;;6.27;3.47;;;;;;;;;;10196049;28;20117;-57
2020/12/15 08:30:14;;;;;;;12.18;5.13;;;;;;;;;;10193941;28;20141;-61
2020/12/15 08:35:12;;;;;;;7.95;4.70;;;;;;;;;;10176498;28;20038;-55
2020/12/15 08:40:10;;;;;;;7.17;4.63;;;;;;;;;;10193505;28;20050;-59
2020/12/15 08:45:15;;;;;;;8.40;5.20;;;;;;;;;;10185854;28;20034;-59
2020/12/15 08:50:13;;;;;;;7.75;5.60;;;;;;;;;;10178861;28;20101;-59
2020/12/15 08:55:11;;;;;;;10.13;6.95;;;;;;;;;;10194209;28;20085;-56
2020/12/15 09:00:12;;;;;;;13.27;5.20;;;;;;;;;;10202456;28;20038;-58
2020/12/15 09:05:10;;;;;;;12.40;6.70;;;;;;;;;;10200159;28;20069;-54
2020/12/15 09:10:12;;;;;;;10.25;5.30;;;;;;;;;;10171410;28;20109;-57
2020/12/15 09:15:09;;;;;;;8.73;5.32;;;;;;;;;;10194565;28;20041;-58
2020/12/15 09:20:08;;;;;;;7.07;4.43;;;;;;;;;;10181365;28;20042;-58
2020/12/15 09:25:12;;;;;;;8.65;5.32;;;;;;;;;;10194122;28;20035;-57
2020/12/15 09:30:12;;;;;;;10.77;5.15;;;;;;;;;;10196432;28;20038;-57
2020/12/15 09:35:10;;;;;;;8.50;4.95;;;;;;;;;;10181078;28;20046;-61
2020/12/15 09:40:08;;;;;;;5.85;3.15;;;;;;;;;;10205358;28;20524;-60
2020/12/15 09:45:06;;;;;;;;;;;;;;;;;;10192485;28;20037;-56
2020/12/15 09:50:03;;;;;;;10.35;6.35;;;;;;;;;;10196186;28;20005;-64
2020/12/15 09:55:01;;;;;;;8.60;5.57;;;;;;;;;;10204504;28;20863;-55
2020/12/15 09:59:58;;;;;;;11.90;6.13;;;;;;;;;;10205056;28;20034;-54
2020/12/15 10:04:55;;;;;;;10.20;4.90;;;;;;;;;;10202376;28;20420;-58
2020/12/15 10:09:58;;;;;;;8.73;4.97;;;;;;;;;;10198045;28;20042;-56
2020/12/15 10:14:55;;;;;;;8.27;4.85;;;;;;;;;;10207967;28;20049;-61
2020/12/15 10:19:53;;;;;;;8.47;5.00;;;;;;;;;;10195829;28;20500;-57
2020/12/15 10:24:50;;;;;;;10.60;5.23;;;;;;;;;;10195792;28;20046;-62
2020/12/15 10:29:47;;;;;;;9.30;5.70;;;;;;;;;;10203123;28;20094;-60
2020/12/15 10:34:45;;;;;;;12.63;6.10;;;;;;;;;;10198722;28;20038;-57
2020/12/15 10:39:43;;;;;;;12.90;5.03;;;;;;;;;;10192395;28;20039;-62
2020/12/15 10:44:40;;;;;;;9.60;4.93;;;;;;;;;;10208867;28;20416;-60
2020/12/15 10:49:38;;;;;;;8.13;4.70;;;;;;;;;;10199516;28;20544;-62
2020/12/15 10:54:35;;;;;;;7.00;4.70;;;;;;;;;;10171251;28;20041;-60
2020/12/15 10:59:32;;;;;;;9.97;5.63;;;;;;;;;;10205878;28;20037;-61
2020/12/15 11:04:30;;;;;;;9.63;5.40;;;;;;;;;;10203151;28;20085;-60
2020/12/15 11:09:27;;;;;;;4.33;3.37;;;;;;;;;;10200198;28;20150;-59
2020/12/15 11:14:25;;;;;;;5.80;4.07;;;;;;;;;;10197283;28;20038;-59
2020/12/15 11:19:22;;;;;;;10.50;4.37;;;;;;;;;;10198165;28;20038;-61
2020/12/15 11:24:20;;;;;;;7.17;3.00;;;;;;;;;;10202274;28;20043;-58
2020/12/15 11:29:17;;;;;;;8.83;4.27;;;;;;;;;;10189968;28;20112;-60
2020/12/15 11:34:14;;;;;;;9.87;4.80;;;;;;;;;;10205373;28;20050;-56
2020/12/15 11:39:12;;;;;;;8.63;4.13;;;;;;;;;;10195946;28;20096;-57
2020/12/15 11:44:10;;;;;;;6.13;3.63;;;;;;;;;;10214679;28;20043;-55
2020/12/15 11:49:08;;;;;;;5.50;4.40;;;;;;;;;;10180057;28;20061;-57
2020/12/15 11:54:05;;;;;;;5.47;3.33;;;;;;;;;;10184035;28;20042;-57
2020/12/15 11:59:02;;;;;;;6.90;3.63;;;;;;;;;;10211211;28;20038;-61
2020/12/15 12:04:00;;;;;;;6.40;3.80;;;;;;;;;;10199979;28;20103;-55
2020/12/15 12:08:57;;;;;;;6.63;3.67;;;;;;;;;;10187886;28;20034;-57
2020/12/15 12:13:55;;;;;;;9.73;5.20;;;;;;;;;;10189424;28;20042;-63
2020/12/15 12:18:52;;;;;;;11.67;4.47;;;;;;;;;;10198123;28;20420;-61
2020/12/15 12:23:50;;;;;;;11.83;4.67;;;;;;;;;;10211578;28;20947;-60
2020/12/15 12:28:47;;;;;;;5.97;4.03;;;;;;;;;;10211601;28;20037;-54
2020/12/15 12:33:44;;;;;;;6.13;4.00;;;;;;;;;;10201969;28;20407;-59
2020/12/15 12:38:43;;;;;;;8.77;4.23;;;;;;;;;;10209225;28;20072;-64
2020/12/15 12:43:43;;;;;;;9.52;4.85;;;;;;;;;;10210334;28;20030;-58
2020/12/15 12:48:41;;;;;;;15.30;7.30;;;;;;;;;;10196108;28;20306;-53
2020/12/15 12:53:41;;;;;;;2.43;2.23;;;;;;;;;;10202360;28;20034;-60
2020/12/15 12:58:38;;;;;;;5.22;3.78;;;;;;;;;;10204910;28;20072;-56
2020/12/15 13:03:36;;;;;;;10.73;4.77;;;;;;;;;;10195938;28;20153;-59
2020/12/15 13:08:33;;;;;;;12.93;6.33;;;;;;;;;;10209877;28;20551;-53
2020/12/15 13:13:30;;;;;;;8.70;5.23;;;;;;;;;;10176762;28;20042;-57
2020/12/15 13:18:28;;;;;;;9.53;5.97;;;;;;;;;;10179964;28;20045;-58
2020/12/15 13:23:25;;;;;;;6.77;3.67;;;;;;;;;;10194198;28;20043;-58
2020/12/15 13:28:23;;;;;;;18.03;7.43;;;;;;;;;;10214678;28;20053;-57
2020/12/15 13:33:20;;;;;;;10.43;5.57;;;;;;;;;;10207367;28;20050;-58
2020/12/15 13:38:17;;;;;;;23.23;10.90;;;;;;;;;;10204925;28;20093;-57
2020/12/15 13:43:15;;;;;;;9.57;4.50;;;;;;;;;;10215024;28;20069;-64
2020/12/15 13:48:13;;;;;;;15.43;8.13;;;;;;;;;;10216010;28;20039;-58
2020/12/15 13:53:10;;;;;;;14.13;7.23;;;;;;;;;;10212120;28;20050;-59
2020/12/15 13:58:08;;;;;;;15.73;8.60;;;;;;;;;;10219473;28;20042;-61
2020/12/15 14:03:09;;;;;;;11.97;6.50;;;;;;;;;;10191579;28;20069;-59
2020/12/15 14:08:06;;;;;;;28.33;16.13;;;;;;;;;;10201128;28;20479;-56
2020/12/15 14:13:04;;;;;;;13.77;8.97;;;;;;;;;;10199391;28;20065;-61
2020/12/15 14:18:01;;;;;;;5.33;4.37;;;;;;;;;;10211924;28;20038;-56
2020/12/15 14:22:59;;;;;;;19.80;7.40;;;;;;;;;;10206969;28;20042;-57
2020/12/15 14:27:56;;;;;;;14.63;6.17;;;;;;;;;;10201851;28;20041;-56
2020/12/15 14:32:54;;;;;;;14.13;7.23;;;;;;;;;;10208827;28;20520;-53
2020/12/15 14:37:51;;;;;;;12.75;6.00;;;;;;;;;;10204636;28;20299;-54
2020/12/15 14:42:49;;;;;;;8.93;4.77;;;;;;;;;;10201350;28;20107;-52
2020/12/15 14:47:46;;;;;;;8.43;5.60;;;;;;;;;;10212285;28;20520;-58
2020/12/15 14:52:44;;;;;;;12.63;6.57;;;;;;;;;;10180529;28;20084;-62
2020/12/15 14:57:41;;;;;;;18.57;8.40;;;;;;;;;;10190205;28;20042;-57
2020/12/15 15:02:39;;;;;;;13.93;8.10;;;;;;;;;;10196005;28;20125;-58
2020/12/15 15:07:36;;;;;;;4.77;3.23;;;;;;;;;;10205332;28;20092;-54
2020/12/15 15:12:34;;;;;;;14.57;7.13;;;;;;;;;;10215991;28;20026;-56
2020/12/15 15:17:32;;;;;;;16.53;9.73;;;;;;;;;;10193387;28;20129;-63
2020/12/15 15:22:29;;;;;;;14.52;8.65;;;;;;;;;;10209520;28;20030;-59
2020/12/15 15:27:27;;;;;;;17.40;10.27;;;;;;;;;;10205769;28;20038;-57
2020/12/15 15:32:24;;;;;;;16.73;8.97;;;;;;;;;;10204491;28;20133;-58
2020/12/15 15:37:22;;;;;;;13.07;7.93;;;;;;;;;;10191763;28;20069;-59
2020/12/15 15:42:20;;;;;;;10.90;5.50;;;;;;;;;;10191164;28;20467;-59
2020/12/15 15:47:18;;;;;;;20.42;9.50;;;;;;;;;;10195183;28;20116;-59
2020/12/15 15:52:15;;;;;;;19.53;8.50;;;;;;;;;;10188117;28;20060;-56
2020/12/15 15:57:13;;;;;;;16.23;7.70;;;;;;;;;;10171266;28;21523;-61
2020/12/15 16:02:12;;;;;;;15.97;9.33;;;;;;;;;;10178422;28;20039;-55
2020/12/15 16:07:09;;;;;;;6.07;4.22;;;;;;;;;;10174351;28;20112;-58
2020/12/15 16:12:06;;;;;;;13.20;6.67;;;;;;;;;;10181074;28;20034;-58
2020/12/15 16:17:04;;;;;;;15.37;8.97;;;;;;;;;;10154385;28;20072;-61
2020/12/15 16:22:02;;;;;;;14.43;7.72;;;;;;;;;;10188569;28;20038;-57
2020/12/15 16:27:00;;;;;;;9.50;5.00;;;;;;;;;;10185238;28;21246;-59
2020/12/15 16:31:57;;;;;;;18.23;8.27;;;;;;;;;;10194991;28;20044;-58
2020/12/15 16:36:54;;;;;;;11.77;5.23;;;;;;;;;;10198173;28;20497;-62
2020/12/15 16:41:52;;;;;;;24.13;13.13;;;;;;;;;;10194600;28;21394;-53
2020/12/15 16:46:50;;;;;;;23.50;12.53;;;;;;;;;;10175822;28;20049;-58
2020/12/15 16:51:47;;;;;;;11.63;5.37;;;;;;;;;;10186180;28;21311;-56
2020/12/15 16:56:45;;;;;;;13.83;6.07;;;;;;;;;;10189554;28;20408;-54
2020/12/15 17:01:46;;;;;;;9.70;5.35;;;;;;;;;;10188400;28;20133;-62
2020/12/15 17:06:44;;;;;;;15.90;8.48;;;;;;;;;;10196574;28;20072;-60
2020/12/15 17:11:42;;;;;;;10.77;5.93;;;;;;;;;;10188009;28;20129;-56
2020/12/15 17:16:39;;;;;;;26.37;12.23;;;;;;;;;;10184542;28;20069;-60
2020/12/15 17:21:36;;;;;;;26.37;12.33;;;;;;;;;;10189272;28;20578;-55
2020/12/15 17:26:34;;;;;;;9.53;3.77;;;;;;;;;;10195740;28;20042;-60
2020/12/15 17:31:31;;;;;;;5.60;3.63;;;;;;;;;;10184242;28;20051;-59
2020/12/15 17:36:29;;;;;;;25.23;14.13;;;;;;;;;;10184633;28;20038;-57
2020/12/15 17:41:26;;;;;;;41.07;22.17;;;;;;;;;;10186910;28;20037;-59
2020/12/15 17:46:29;;;;;;;10.23;5.27;;;;;;;;;;10173618;28;20050;-52
2020/12/15 17:51:27;;;;;;;13.48;5.93;;;;;;;;;;10173361;28;20034;-54
2020/12/15 17:56:25;;;;;;;5.17;3.10;;;;;;;;;;10196304;28;20054;-59
2020/12/15 18:01:22;;;;;;;9.77;5.75;;;;;;;;;;10179413;28;20076;-56
2020/12/15 18:06:20;;;;;;;11.90;5.37;;;;;;;;;;10190711;28;20038;-63
2020/12/15 18:11:17;;;;;;;3.83;3.43;;;;;;;;;;10180715;28;20295;-55
2020/12/15 18:16:14;;;;;;;7.20;4.90;;;;;;;;;;10179586;28;20417;-59
2020/12/15 18:21:12;;;;;;;9.30;5.77;;;;;;;;;;10192305;28;20050;-58
2020/12/15 18:26:10;;;;;;;5.67;3.57;;;;;;;;;;10180289;28;20483;-57
2020/12/15 18:31:11;;;;;;;8.23;5.00;;;;;;;;;;10192548;28;20058;-58
2020/12/15 18:36:08;;;;;;;12.27;5.05;;;;;;;;;;10181146;28;20331;-64
2020/12/15 18:41:06;;;;;;;5.63;3.73;;;;;;;;;;10189094;28;20035;-56
2020/12/15 18:46:03;;;;;;;10.93;5.90;;;;;;;;;;10186763;28;20441;-58
2020/12/15 18:51:01;;;;;;;4.50;4.07;;;;;;;;;;10208587;28;21436;-54
2020/12/15 18:55:58;;;;;;;12.67;5.57;;;;;;;;;;10192380;28;20154;-59
2020/12/15 19:00:55;;;;;;;11.03;5.97;;;;;;;;;;10187575;28;20030;-57
2020/12/15 19:05:53;;;;;;;6.47;3.90;;;;;;;;;;10207651;28;20406;-56
2020/12/15 19:10:50;;;;;;;9.13;6.13;;;;;;;;;;10207089;28;20038;-53
2020/12/15 19:15:48;;;;;;;6.63;3.63;;;;;;;;;;10181652;28;20042;-51
2020/12/15 19:20:45;;;;;;;5.88;3.78;;;;;;;;;;10212191;28;20045;-56
2020/12/15 19:25:43;;;;;;;10.77;5.73;;;;;;;;;;10193954;28;20038;-54
2020/12/15 19:30:42;;;;;;;22.27;11.77;;;;;;;;;;10201760;28;20109;-58
2020/12/15 19:35:40;;;;;;;20.45;11.40;;;;;;;;;;10191185;28;20092;-57
2020/12/15 19:40:37;;;;;;;18.80;10.87;;;;;;;;;;10188431;28;20089;-59
2020/12/15 19:45:34;;;;;;;16.33;10.27;;;;;;;;;;10185625;28;20050;-57
2020/12/15 19:50:32;;;;;;;17.87;10.37;;;;;;;;;;10194321;28;20039;-56
2020/12/15 19:55:30;;;;;;;15.97;9.80;;;;;;;;;;10177231;28;20522;-57
2020/12/15 20:00:28;;;;;;;17.52;10.27;;;;;;;;;;10191995;28;20045;-62
2020/12/15 20:05:26;;;;;;;16.50;9.03;;;;;;;;;;10190682;28;20034;-54
2020/12/15 20:10:25;;;;;;;17.35;9.88;;;;;;;;;;10177242;28;20054;-55
2020/12/15 20:15:24;;;;;;;16.45;9.77;;;;;;;;;;10201576;28;20038;-62
2020/12/15 20:20:22;;;;;;;17.10;9.65;;;;;;;;;;10199243;28;20496;-63
2020/12/15 20:25:20;;;;;;;20.92;10.02;;;;;;;;;;10176780;28;20049;-55
2020/12/15 20:30:17;;;;;;;16.17;7.05;;;;;;;;;;10199593;28;20038;-54
2020/12/15 20:35:15;;;;;;;20.13;8.70;;;;;;;;;;10186967;28;20105;-50
2020/12/15 20:40:12;;;;;;;18.00;8.70;;;;;;;;;;10184631;28;20539;-56
2020/12/15 20:45:10;;;;;;;15.70;8.30;;;;;;;;;;10182058;28;20417;-63
2020/12/15 20:50:07;;;;;;;18.67;9.03;;;;;;;;;;10179705;28;20531;-53
2020/12/15 20:55:04;;;;;;;19.37;8.00;;;;;;;;;;10188410;28;20509;-56
2020/12/15 21:00:04;;;;;;;18.10;7.63;;;;;;;;;;10198454;28;20465;-58
2020/12/15 21:05:01;;;;;;;16.23;8.63;;;;;;;;;;10182489;28;20058;-56
2020/12/15 21:09:59;;;;;;;18.20;8.10;;;;;;;;;;10192287;28;20030;-57
2020/12/15 21:14:56;;;;;;;16.97;8.03;;;;;;;;;;10193712;28;20050;-57
2020/12/15 21:19:54;;;;;;;16.97;7.43;;;;;;;;;;10188118;28;20038;-60
2020/12/15 21:24:51;;;;;;;14.63;6.33;;;;;;;;;;10167588;28;20505;-63
2020/12/15 21:29:49;;;;;;;19.17;7.93;;;;;;;;;;10190404;28;20126;-60
2020/12/15 21:34:46;;;;;;;16.20;8.33;;;;;;;;;;10186647;28;20081;-61
2020/12/15 21:39:44;;;;;;;24.43;9.73;;;;;;;;;;10190871;28;20052;-60
2020/12/15 21:44:41;;;;;;;38.17;15.63;;;;;;;;;;10196548;28;20104;-60
2020/12/15 21:49:38;;;;;;;29.30;11.87;;;;;;;;;;10198191;28;20053;-57
2020/12/15 21:54:36;;;;;;;43.77;16.20;;;;;;;;;;10187611;28;20054;-55
2020/12/15 21:59:34;;;;;;;37.70;13.27;;;;;;;;;;10197521;28;20476;-60
2020/12/15 22:04:31;;;;;;;20.13;5.97;;;;;;;;;;10205469;28;20045;-56
2020/12/15 22:09:28;;;;;;;26.60;10.33;;;;;;;;;;10185062;28;20046;-59
2020/12/15 22:14:26;;;;;;;27.53;11.80;;;;;;;;;;10208533;28;20035;-52
2020/12/15 22:19:23;;;;;;;19.67;7.97;;;;;;;;;;10205024;28;20038;-57
2020/12/15 22:24:20;;;;;;;23.93;9.40;;;;;;;;;;10188443;28;20115;-58
2020/12/15 22:29:18;;;;;;;13.17;7.03;;;;;;;;;;10197489;28;20146;-60
2020/12/15 22:34:15;;;;;;;25.50;10.97;;;;;;;;;;10203414;28;20885;-60
2020/12/15 22:39:13;;;;;;;26.30;10.80;;;;;;;;;;10200143;28;20045;-56
2020/12/15 22:44:10;;;;;;;28.33;11.93;;;;;;;;;;10189400;28;20137;-58
2020/12/15 22:49:07;;;;;;;24.93;9.20;;;;;;;;;;10198365;28;20042;-58
2020/12/15 22:54:05;;;;;;;10.40;4.73;;;;;;;;;;10195184;28;20034;-57
2020/12/15 22:59:02;;;;;;;20.97;9.17;;;;;;;;;;10203829;28;20058;-59
2020/12/15 23:03:59;;;;;;;28.90;11.20;;;;;;;;;;10187570;28;20030;-62
2020/12/15 23:08:57;;;;;;;34.67;13.00;;;;;;;;;;10203465;28;20492;-58
2020/12/15 23:13:55;;;;;;;25.57;10.20;;;;;;;;;;10195206;28;20038;-57
2020/12/15 23:18:52;;;;;;;38.38;14.07;;;;;;;;;;10209468;28;20093;-57
2020/12/15 23:23:50;;;;;;;32.13;12.30;;;;;;;;;;10199742;28;20112;-61
2020/12/15 23:28:47;;;;;;;31.80;13.70;;;;;;;;;;10203057;28;20050;-56
2020/12/15 23:33:44;;;;;;;23.37;8.93;;;;;;;;;;10202783;28;20031;-59
2020/12/15 23:38:42;;;;;;;27.03;10.27;;;;;;;;;;10181844;28;20038;-56
2020/12/15 23:43:40;;;;;;;31.10;12.47;;;;;;;;;;10208631;28;20034;-57
2020/12/15 23:48:38;;;;;;;34.83;12.63;;;;;;;;;;10201528;28;20046;-58
2020/12/15 23:53:35;;;;;;;39.92;13.70;;;;;;;;;;10206671;28;20050;-59
2020/12/15 23:58:33;;;;;;;23.20;8.80;;;;;;;;;;10215705;28;20420;-58
